Time;durP1;ratioP1;P1;durP2;ratioP2;P2;SDS_P1;SDS_P2;PMS_P1;PMS_P2;Temp;Humidity;BMP_temperature;BMP_pressure;BME280_temperature;BME280_humidity;BME280_pressure;Samples;Min_cycle;Max_cycle;Signal;HPM_P1;HPM_P2
2022/04/10 00:00:08;;;;;;;10.38;2.13;;;3.30;99.90;;;;;;5046481;28;20428;-52
2022/04/10 00:02:33;;;;;;;11.00;2.20;;;3.20;99.90;;;;;;5032490;28;20371;-52
2022/04/10 00:04:59;;;;;;;8.88;2.15;;;3.20;99.90;;;;;;5035032;28;20033;-54
2022/04/10 00:07:24;;;;;;;12.35;2.55;;;3.20;99.90;;;;;;5052151;28;20040;-53
2022/04/10 00:09:50;;;;;;;11.77;2.65;;;3.20;99.90;;;;;;5052271;28;20033;-54
2022/04/10 00:12:15;;;;;;;17.92;3.20;;;3.20;99.90;;;;;;5051923;28;20119;-52
2022/04/10 00:14:41;;;;;;;11.50;2.35;;;3.20;99.90;;;;;;5040811;28;20456;-54
2022/04/10 00:17:06;;;;;;;12.10;2.20;;;3.20;99.90;;;;;;5049758;28;20470;-54
2022/04/10 00:19:32;;;;;;;9.38;2.30;;;3.20;99.90;;;;;;5052436;28;20063;-52
2022/04/10 00:21:58;;;;;;;6.97;2.10;;;3.30;99.90;;;;;;5052002;28;20409;-54
2022/04/10 00:24:25;;;;;;;11.65;2.28;;;3.30;99.90;;;;;;5050966;28;20408;-52
2022/04/10 00:26:52;;;;;;;15.68;2.78;;;3.30;99.90;;;;;;5051566;28;20147;-54
2022/04/10 00:29:18;;;;;;;11.18;2.35;;;3.30;99.90;;;;;;5051166;28;20067;-54
2022/04/10 00:31:43;;;;;;;11.45;2.22;;;3.30;99.90;;;;;;5052153;28;20513;-51
2022/04/10 00:34:09;;;;;;;12.15;2.50;;;3.30;99.90;;;;;;5048330;28;20040;-51
2022/04/10 00:36:34;;;;;;;10.55;2.20;;;3.20;99.90;;;;;;5044611;28;20047;-51
2022/04/10 00:39:00;;;;;;;6.80;1.75;;;3.30;99.90;;;;;;5034743;28;20120;-51
2022/04/10 00:41:26;;;;;;;11.63;2.47;;;3.20;99.90;;;;;;5035101;28;20048;-52
2022/04/10 00:44:09;;;;;;;10.75;2.45;;;3.20;99.90;;;;;;5051088;28;20037;-54
2022/04/10 00:46:35;;;;;;;;;;;3.30;99.90;;;;;;5051230;28;20043;-51
2022/04/10 00:49:00;;;;;;;14.63;2.40;;;3.30;99.90;;;;;;5050775;28;20364;-51
2022/04/10 00:51:40;;;;;;;13.95;2.88;;;3.30;99.90;;;;;;5051437;28;20033;-50
2022/04/10 00:54:17;;;;;;;16.25;2.58;;;3.30;99.90;;;;;;5033570;28;20049;-53
2022/04/10 00:56:44;;;;;;;10.30;2.30;;;3.30;99.90;;;;;;5026850;28;20040;-53
2022/04/10 00:59:10;;;;;;;12.63;3.47;;;3.30;99.90;;;;;;5038625;28;20053;-51
2022/04/10 01:01:37;;;;;;;13.32;2.20;;;3.20;99.90;;;;;;5047826;28;20128;-53
2022/04/10 01:04:04;;;;;;;13.38;2.95;;;3.30;99.90;;;;;;5051146;28;20048;-51
2022/04/10 01:06:32;;;;;;;18.00;3.00;;;3.20;99.90;;;;;;5032925;28;20045;-51
2022/04/10 01:08:57;;;;;;;16.60;2.65;;;3.20;99.90;;;;;;5049253;28;20029;-51
2022/04/10 01:11:23;;;;;;;16.63;2.35;;;3.20;99.90;;;;;;5045666;28;20405;-53
2022/04/10 01:13:49;;;;;;;12.32;2.55;;;3.20;99.90;;;;;;5051399;28;20340;-54
2022/04/10 01:16:15;;;;;;;12.30;2.75;;;3.20;99.90;;;;;;5033224;28;20037;-52
2022/04/10 01:18:41;;;;;;;11.85;2.97;;;3.20;99.90;;;;;;5051147;28;20045;-50
2022/04/10 01:21:07;;;;;;;12.43;2.47;;;3.20;99.90;;;;;;5051179;28;20073;-50
2022/04/10 01:23:33;;;;;;;17.23;2.90;;;3.20;99.90;;;;;;5049685;28;20061;-53
2022/04/10 01:25:58;;;;;;;11.57;2.58;;;3.20;99.90;;;;;;5045011;28;20033;-50
2022/04/10 01:28:24;;;;;;;13.45;2.42;;;3.30;99.90;;;;;;5031267;28;20120;-52
2022/04/10 01:30:49;;;;;;;15.13;2.70;;;3.30;99.90;;;;;;5031432;28;20117;-53
2022/04/10 01:33:15;;;;;;;13.27;2.63;;;3.30;99.90;;;;;;5036654;28;20566;-52
2022/04/10 01:35:40;;;;;;;14.93;2.72;;;3.30;99.90;;;;;;5049920;28;20059;-50
2022/04/10 01:38:08;;;;;;;10.50;2.63;;;3.30;99.90;;;;;;5048178;28;20087;-52
2022/04/10 01:40:34;;;;;;;15.77;2.80;;;3.30;99.90;;;;;;5031638;28;20048;-50
2022/04/10 01:42:59;;;;;;;10.95;2.80;;;3.30;99.90;;;;;;5031826;28;20120;-51
2022/04/10 01:45:25;;;;;;;11.50;2.60;;;3.30;99.90;;;;;;5050948;28;20572;-52
2022/04/10 01:47:52;;;;;;;13.00;2.70;;;3.30;99.90;;;;;;5052035;28;20037;-53
2022/04/10 01:50:18;;;;;;;13.85;2.88;;;3.30;99.90;;;;;;5052266;28;20065;-51
2022/04/10 01:52:44;;;;;;;12.13;2.42;;;3.30;99.90;;;;;;5048382;28;20505;-54
2022/04/10 01:55:10;;;;;;;16.10;2.95;;;3.30;99.90;;;;;;5053980;28;20083;-54
2022/04/10 01:57:35;;;;;;;10.77;2.50;;;3.20;99.90;;;;;;5053407;28;20413;-52
2022/04/10 02:00:01;;;;;;;9.80;2.25;;;3.20;99.90;;;;;;5054330;28;20184;-53
2022/04/10 02:02:27;;;;;;;12.48;3.05;;;3.20;99.90;;;;;;5040447;28;20120;-53
2022/04/10 02:04:52;;;;;;;10.93;2.88;;;3.10;99.90;;;;;;5034508;28;20033;-53
2022/04/10 02:07:18;;;;;;;15.30;3.20;;;3.10;99.90;;;;;;5034663;28;20076;-53
2022/04/10 02:09:44;;;;;;;13.95;2.60;;;3.00;99.90;;;;;;5042281;28;20053;-53
2022/04/10 02:12:10;;;;;;;11.65;2.80;;;3.00;99.90;;;;;;5034572;28;20528;-53
2022/04/10 02:14:36;;;;;;;13.88;2.78;;;3.00;99.90;;;;;;5052619;28;20481;-53
2022/04/10 02:17:01;;;;;;;10.10;2.83;;;3.10;99.90;;;;;;5054123;28;20033;-53
2022/04/10 02:19:27;;;;;;;12.13;2.65;;;3.00;99.90;;;;;;5052907;28;20075;-53
2022/04/10 02:21:54;;;;;;;12.60;2.45;;;3.00;99.90;;;;;;5054477;28;20041;-54
2022/04/10 02:24:20;;;;;;;11.80;2.75;;;3.10;99.90;;;;;;5044887;28;20045;-53
2022/04/10 02:26:46;;;;;;;14.05;2.58;;;3.10;99.90;;;;;;5034421;28;20401;-53
2022/04/10 02:29:11;;;;;;;9.50;2.20;;;3.10;99.90;;;;;;5034147;28;20044;-53
2022/04/10 02:31:37;;;;;;;12.05;2.88;;;3.10;99.90;;;;;;5034199;28;20111;-53
2022/04/10 02:34:02;;;;;;;12.93;2.20;;;3.10;99.90;;;;;;5047957;28;20473;-53
2022/04/10 02:36:28;;;;;;;13.05;2.80;;;3.10;99.90;;;;;;5053121;28;20044;-53
2022/04/10 02:38:53;;;;;;;16.58;2.30;;;3.10;99.90;;;;;;5052617;28;20044;-53
2022/04/10 02:41:19;;;;;;;13.05;2.65;;;3.10;99.90;;;;;;5053949;28;20512;-53
2022/04/10 02:43:44;;;;;;;12.35;2.28;;;3.20;99.90;;;;;;5053811;28;20095;-54
2022/04/10 02:46:10;;;;;;;13.27;2.70;;;3.20;99.90;;;;;;5052180;28;20044;-53
2022/04/10 02:48:35;;;;;;;11.55;2.22;;;3.20;99.90;;;;;;5051583;28;20041;-54
2022/04/10 02:51:02;;;;;;;12.27;2.70;;;3.10;99.90;;;;;;5053745;28;20087;-54
2022/04/10 02:53:28;;;;;;;13.32;2.40;;;3.20;99.90;;;;;;5051748;28;20459;-54
2022/04/10 02:55:54;;;;;;;12.82;2.38;;;3.20;99.90;;;;;;5053362;28;20465;-52
2022/04/10 02:58:19;;;;;;;11.65;2.50;;;3.20;99.90;;;;;;5053016;28;20121;-54
2022/04/10 03:00:45;;;;;;;8.50;2.00;;;3.20;99.90;;;;;;5052812;28;20072;-54
2022/04/10 03:03:10;;;;;;;9.57;2.53;;;3.20;99.90;;;;;;5053024;28;20076;-54
2022/04/10 03:05:36;;;;;;;13.88;2.40;;;3.20;99.90;;;;;;5034467;28;20041;-53
2022/04/10 03:08:01;;;;;;;14.23;2.40;;;3.20;99.90;;;;;;5052015;28;20033;-54
2022/04/10 03:10:27;;;;;;;15.35;2.75;;;3.20;99.90;;;;;;5053625;28;20533;-53
2022/04/10 03:12:52;;;;;;;9.88;2.20;;;3.20;99.90;;;;;;5053407;28;20036;-53
2022/04/10 03:15:18;;;;;;;13.52;2.60;;;3.10;99.90;;;;;;5052525;28;20422;-53
2022/04/10 03:17:43;;;;;;;18.88;2.97;;;3.10;99.90;;;;;;5052716;28;20405;-54
2022/04/10 03:20:11;;;;;;;11.80;2.30;;;3.10;99.90;;;;;;5036225;28;20042;-51
2022/04/10 03:22:37;;;;;;;9.23;2.55;;;3.10;99.90;;;;;;5051032;28;20068;-54
2022/04/10 03:25:03;;;;;;;13.60;2.55;;;3.10;99.90;;;;;;5053166;28;20493;-53
2022/04/10 03:27:28;;;;;;;13.80;2.35;;;3.10;99.90;;;;;;5052852;28;20543;-53
2022/04/10 03:29:54;;;;;;;9.50;2.40;;;3.10;99.90;;;;;;5051833;28;20033;-51
2022/04/10 03:32:20;;;;;;;14.25;2.50;;;3.10;99.90;;;;;;5026689;28;20046;-53
2022/04/10 03:34:45;;;;;;;12.73;2.58;;;3.10;99.90;;;;;;5035130;28;20040;-51
2022/04/10 03:37:11;;;;;;;16.08;2.30;;;3.10;99.90;;;;;;5052741;28;20408;-53
2022/04/10 03:39:36;;;;;;;15.32;2.58;;;3.10;99.90;;;;;;5052645;28;20524;-52
2022/04/10 03:42:02;;;;;;;14.73;2.60;;;3.10;99.90;;;;;;5052534;28;20121;-52
2022/04/10 03:44:28;;;;;;;12.85;2.67;;;3.10;99.90;;;;;;5051177;28;20041;-51
2022/04/10 03:46:53;;;;;;;8.18;2.30;;;3.10;99.90;;;;;;5052364;28;20102;-51
2022/04/10 03:49:19;;;;;;;7.68;2.20;;;3.10;99.90;;;;;;5051868;28;20041;-52
2022/04/10 03:51:44;;;;;;;9.52;2.80;;;3.10;99.90;;;;;;5052635;28;20047;-51
2022/04/10 03:54:10;;;;;;;17.27;2.38;;;3.10;99.90;;;;;;5052620;28;20044;-54
2022/04/10 03:56:35;;;;;;;8.80;2.03;;;3.00;99.90;;;;;;5052288;28;20041;-54
2022/04/10 03:59:01;;;;;;;6.40;2.20;;;3.10;99.90;;;;;;5050959;28;20489;-54
2022/04/10 04:01:26;;;;;;;16.92;2.58;;;3.00;99.90;;;;;;5052150;28;20489;-52
2022/04/10 04:03:52;;;;;;;9.88;2.20;;;3.10;99.90;;;;;;5050825;28;20130;-52
2022/04/10 04:06:17;;;;;;;11.07;2.40;;;3.10;99.90;;;;;;5043789;28;20037;-54
2022/04/10 04:08:43;;;;;;;10.63;2.15;;;3.10;99.90;;;;;;5052171;28;20040;-51
2022/04/10 04:11:08;;;;;;;10.00;2.33;;;3.30;99.90;;;;;;5051602;28;20171;-53
2022/04/10 04:13:43;;;;;;;7.72;1.42;;;3.30;99.90;;;;;;5034639;28;20048;-53
2022/04/10 04:16:08;;;;;;;7.28;1.42;;;3.30;99.90;;;;;;5031817;28;20455;-52
2022/04/10 04:18:34;;;;;;;6.10;1.70;;;3.30;99.90;;;;;;5038393;28;20037;-53
2022/04/10 04:21:00;;;;;;;5.53;1.35;;;3.30;99.90;;;;;;5043314;28;20417;-53
2022/04/10 04:23:26;;;;;;;3.88;1.30;;;3.20;99.90;;;;;;5034253;28;20033;-52
2022/04/10 04:25:52;;;;;;;4.43;1.27;;;3.30;99.90;;;;;;5051349;28;20557;-54
2022/04/10 04:28:17;;;;;;;3.55;1.10;;;3.30;99.90;;;;;;5050410;28;20102;-51
2022/04/10 04:30:43;;;;;;;8.65;1.52;;;3.30;99.90;;;;;;5051670;28;20527;-54
2022/04/10 04:33:08;;;;;;;5.05;1.35;;;3.30;99.90;;;;;;5051159;28;20660;-52
2022/04/10 04:35:34;;;;;;;7.97;1.65;;;3.30;99.90;;;;;;5050944;28;20059;-52
2022/04/10 04:38:00;;;;;;;4.72;1.45;;;3.30;99.90;;;;;;5049682;28;20037;-52
2022/04/10 04:40:26;;;;;;;6.88;1.67;;;3.40;99.90;;;;;;5026332;28;20052;-52
2022/04/10 04:42:52;;;;;;;7.22;1.52;;;3.40;99.90;;;;;;5031744;28;20041;-51
2022/04/10 04:45:18;;;;;;;5.72;1.33;;;3.40;99.90;;;;;;5031622;28;20037;-54
2022/04/10 04:47:44;;;;;;;9.23;1.55;;;3.50;99.90;;;;;;5038648;28;20099;-52
2022/04/10 04:50:10;;;;;;;7.20;1.67;;;3.50;99.90;;;;;;5219981;22;20500;-50
2022/04/10 04:52:35;;;;;;;6.20;1.63;;;3.50;99.90;;;;;;5068871;28;21545;-52
2022/04/10 04:55:01;;;;;;;6.80;1.30;;;3.50;99.90;;;;;;5060889;28;20232;-52
2022/04/10 04:57:27;;;;;;;8.18;1.65;;;3.50;99.90;;;;;;5041452;28;20060;-52
2022/04/10 04:59:52;;;;;;;4.97;1.50;;;3.50;99.90;;;;;;5051171;28;20044;-52
2022/04/10 05:02:18;;;;;;;6.60;1.30;;;3.40;99.90;;;;;;5019816;28;20048;-50
2022/04/10 05:04:44;;;;;;;5.28;1.40;;;3.40;99.90;;;;;;5057104;28;20116;-53
2022/04/10 05:07:09;;;;;;;8.65;1.45;;;3.40;99.90;;;;;;5054038;28;20033;-52
2022/04/10 05:09:35;;;;;;;4.82;1.40;;;3.40;99.90;;;;;;5070095;28;20492;-49
2022/04/10 05:12:00;;;;;;;4.95;1.55;;;3.50;99.90;;;;;;5065042;28;20042;-48
2022/04/10 05:14:26;;;;;;;3.30;1.13;;;3.50;99.90;;;;;;5063135;28;20503;-52
2022/04/10 05:16:51;;;;;;;6.47;1.40;;;3.60;99.90;;;;;;5069587;28;20029;-51
2022/04/10 05:19:17;;;;;;;4.63;1.70;;;3.60;99.90;;;;;;5053229;28;20381;-50
2022/04/10 05:21:43;;;;;;;5.03;1.60;;;3.60;99.90;;;;;;5068702;28;20086;-49
2022/04/10 05:24:08;;;;;;;5.32;1.45;;;3.70;99.90;;;;;;5066722;28;20483;-52
2022/04/10 05:26:34;;;;;;;3.83;1.13;;;3.70;99.90;;;;;;5074202;28;20043;-52
2022/04/10 05:29:00;;;;;;;3.65;1.20;;;3.60;99.90;;;;;;5073381;28;20081;-52
2022/04/10 05:31:25;;;;;;;3.90;1.27;;;3.60;99.90;;;;;;5067068;28;20112;-52
2022/04/10 05:33:51;;;;;;;4.10;1.10;;;3.60;99.90;;;;;;5075341;28;20466;-48
2022/04/10 05:36:17;;;;;;;3.90;1.15;;;3.70;99.90;;;;;;5074765;28;20048;-49
2022/04/10 05:38:45;;;;;;;4.07;1.25;;;3.70;99.90;;;;;;5075117;28;20094;-49
2022/04/10 05:41:14;;;;;;;3.88;1.50;;;3.70;99.90;;;;;;5073979;28;20047;-50
2022/04/10 05:43:40;;;;;;;3.70;1.05;;;3.80;99.90;;;;;;5030612;28;20040;-51
2022/04/10 05:46:06;;;;;;;2.05;1.15;;;3.80;99.90;;;;;;5048674;28;20396;-52
2022/04/10 05:48:31;;;;;;;5.65;1.45;;;3.90;99.90;;;;;;5057283;28;20481;-52
2022/04/10 05:50:57;;;;;;;7.10;1.40;;;4.00;99.90;;;;;;5056815;28;20163;-51
2022/04/10 05:53:26;;;;;;;3.72;1.27;;;4.00;99.90;;;;;;5074829;28;20047;-52
2022/04/10 05:55:51;;;;;;;5.15;1.40;;;4.00;99.90;;;;;;5074724;28;20128;-50
2022/04/10 05:58:17;;;;;;;4.97;1.40;;;4.00;99.90;;;;;;5072651;28;20178;-50
2022/04/10 06:00:42;;;;;;;4.35;1.30;;;3.90;99.90;;;;;;5073995;28;20090;-52
2022/04/10 06:03:08;;;;;;;3.42;1.30;;;4.00;99.90;;;;;;5057763;28;20489;-50
2022/04/10 06:05:34;;;;;;;5.53;1.38;;;4.00;99.90;;;;;;5073782;28;20079;-51
2022/04/10 06:07:59;;;;;;;4.10;0.90;;;4.00;99.90;;;;;;5074557;28;20048;-50
2022/04/10 06:10:25;;;;;;;8.45;1.30;;;4.00;99.90;;;;;;5073249;28;20040;-52
2022/04/10 06:12:50;;;;;;;7.50;1.65;;;4.00;99.90;;;;;;5056497;28;20564;-51
2022/04/10 06:15:20;;;;;;;5.82;1.30;;;4.00;99.90;;;;;;5073842;28;20115;-52
2022/04/10 06:17:46;;;;;;;5.75;1.42;;;4.00;99.90;;;;;;5071576;28;20385;-52
2022/04/10 06:20:12;;;;;;;8.02;1.20;;;4.10;99.90;;;;;;5073227;28;20037;-52
2022/04/10 06:22:38;;;;;;;5.78;1.55;;;4.00;99.90;;;;;;5070384;28;20036;-52
2022/04/10 06:25:04;;;;;;;7.03;1.33;;;4.10;99.90;;;;;;5060906;28;20032;-50
2022/04/10 06:27:29;;;;;;;7.03;1.77;;;4.10;99.90;;;;;;5039528;28;20043;-50
2022/04/10 06:29:55;;;;;;;6.88;2.00;;;4.20;99.90;;;;;;5062443;28;20392;-52
2022/04/10 06:32:20;;;;;;;5.13;1.40;;;4.40;99.90;;;;;;5029713;28;20093;-49
2022/04/10 06:34:46;;;;;;;4.47;1.40;;;4.60;99.90;;;;;;5063893;28;20491;-50
2022/04/10 06:37:12;;;;;;;6.38;1.20;;;4.80;99.90;;;;;;5034906;28;20079;-52
2022/04/10 06:39:38;;;;;;;6.05;1.92;;;4.90;99.90;;;;;;5063702;28;20063;-52
2022/04/10 06:42:08;;;;;;;5.22;1.30;;;4.80;99.90;;;;;;5056549;28;20091;-52
2022/04/10 06:44:34;;;;;;;5.20;1.20;;;4.80;99.90;;;;;;5037843;28;20111;-52
2022/04/10 06:47:00;;;;;;;4.15;1.15;;;4.80;99.90;;;;;;5073801;28;20115;-52
2022/04/10 06:49:26;;;;;;;4.97;2.08;;;4.90;99.90;;;;;;5055913;28;20044;-50
2022/04/10 06:51:52;;;;;;;5.90;1.55;;;4.90;99.90;;;;;;5073819;28;20048;-52
2022/04/10 06:54:17;;;;;;;6.97;1.70;;;5.00;99.90;;;;;;5035681;28;20036;-48
2022/04/10 06:56:44;;;;;;;6.28;1.48;;;5.00;99.90;;;;;;5032685;28;20626;-51
2022/04/10 06:59:10;;;;;;;2.80;1.23;;;5.20;99.90;;;;;;5038986;28;20454;-51
2022/04/10 07:01:35;;;;;;;5.68;1.60;;;5.20;99.90;;;;;;5073707;28;20040;-52
2022/04/10 07:04:01;;;;;;;3.50;1.20;;;5.30;99.90;;;;;;5073451;28;20078;-49
2022/04/10 07:06:27;;;;;;;7.85;1.45;;;5.30;99.90;;;;;;5073350;28;20400;-49
2022/04/10 07:08:52;;;;;;;4.20;1.27;;;5.30;99.90;;;;;;5064721;28;20036;-52
2022/04/10 07:11:18;;;;;;;5.45;1.40;;;5.40;99.90;;;;;;5070949;28;20127;-49
2022/04/10 07:13:43;;;;;;;5.65;1.40;;;5.40;99.90;;;;;;5072388;28;20040;-53
2022/04/10 07:16:09;;;;;;;5.38;1.45;;;5.50;99.90;;;;;;5063546;28;20052;-52
2022/04/10 07:18:34;;;;;;;6.93;1.73;;;5.50;99.90;;;;;;5053174;28;20067;-50
2022/04/10 07:21:00;;;;;;;7.68;1.60;;;5.60;99.90;;;;;;5062779;28;20055;-51
2022/04/10 07:23:45;;;;;;;5.45;1.52;;;5.60;99.90;;;;;;5071435;28;20048;-50
2022/04/10 07:26:13;;;;;;;8.50;1.33;;;5.70;99.90;;;;;;5048482;28;20135;-48
2022/04/10 07:28:39;;;;;;;4.05;1.35;;;5.80;99.90;;;;;;5059521;28;20449;-50
2022/04/10 07:31:09;;;;;;;5.30;1.33;;;5.90;99.90;;;;;;5061562;28;20111;-50
2022/04/10 07:33:35;;;;;;;4.28;1.23;;;5.90;99.90;;;;;;5072101;28;20431;-50
2022/04/10 07:36:01;;;;;;;7.53;1.30;;;6.00;99.90;;;;;;5062691;28;20044;-51
2022/04/10 07:38:27;;;;;;;11.57;2.65;;;6.10;99.90;;;;;;5054530;28;20124;-52
2022/04/10 07:40:53;;;;;;;5.20;1.48;;;6.20;99.90;;;;;;5062384;28;20131;-51
2022/04/10 07:43:19;;;;;;;4.30;1.38;;;6.40;99.90;;;;;;5069781;28;20044;-52
2022/04/10 07:48:29;;;;;;;10.43;2.53;;;6.60;99.90;;;;;;5070830;28;20047;-50
2022/04/10 07:50:56;;;;;;;6.57;1.52;;;6.60;99.90;;;;;;5072480;28;20037;-52
2022/04/10 07:53:21;;;;;;;7.78;1.50;;;6.50;99.90;;;;;;5069865;28;20041;-49
2022/04/10 07:55:47;;;;;;;6.65;1.40;;;6.50;99.90;;;;;;5064467;28;20047;-50
2022/04/10 07:58:12;;;;;;;7.18;1.58;;;6.50;99.90;;;;;;5052413;28;20049;-48
2022/04/10 08:00:38;;;;;;;9.43;2.30;;;6.50;99.90;;;;;;5052517;28;20037;-51
2022/04/10 08:03:04;;;;;;;6.97;1.75;;;6.60;99.90;;;;;;5029833;28;20044;-49
2022/04/10 08:05:29;;;;;;;9.07;1.80;;;6.70;99.90;;;;;;5072217;28;20028;-52
2022/04/10 08:07:55;;;;;;;6.60;1.63;;;6.90;99.90;;;;;;5054463;28;20041;-52
2022/04/10 08:10:21;;;;;;;5.65;1.65;;;7.00;99.90;;;;;;5061909;28;20055;-52
2022/04/10 08:12:47;;;;;;;4.00;1.33;;;7.10;99.90;;;;;;5070955;28;20041;-49
2022/04/10 08:15:14;;;;;;;7.03;1.42;;;7.20;99.90;;;;;;5070236;28;20049;-52
2022/04/10 08:17:45;;;;;;;12.00;2.60;;;7.40;99.90;;;;;;5064512;28;20047;-48
2022/04/10 08:20:12;;;;;;;9.98;1.77;;;7.50;99.90;;;;;;5028010;28;20453;-51
2022/04/10 08:22:39;;;;;;;9.88;2.38;;;7.60;99.90;;;;;;5051941;28;20567;-48
2022/04/10 08:25:08;;;;;;;6.30;1.85;;;7.60;99.90;;;;;;5017907;28;20044;-48
2022/04/10 08:27:34;;;;;;;11.07;2.08;;;7.80;99.90;;;;;;5061922;28;20033;-48
2022/04/10 08:30:01;;;;;;;5.03;1.38;;;7.90;99.90;;;;;;5061136;28;20036;-49
2022/04/10 08:32:34;;;;;;;17.33;2.75;;;8.00;99.90;;;;;;5058128;28;20486;-50
2022/04/10 08:34:59;;;;;;;11.60;2.38;;;8.10;99.90;;;;;;5070356;28;20372;-50
2022/04/10 08:37:25;;;;;;;8.80;1.58;;;8.00;99.90;;;;;;5058828;28;20059;-49
2022/04/10 08:39:50;;;;;;;10.80;2.08;;;7.90;99.90;;;;;;5051770;28;20043;-51
2022/04/10 08:42:16;;;;;;;8.07;1.98;;;7.70;99.90;;;;;;5017464;28;20409;-51
2022/04/10 08:44:41;;;;;;;13.70;2.00;;;7.70;99.90;;;;;;5051666;28;20076;-51
2022/04/10 08:47:07;;;;;;;10.13;1.77;;;7.80;99.90;;;;;;5053689;28;20381;-51
2022/04/10 08:49:33;;;;;;;11.88;2.10;;;8.00;99.90;;;;;;5067622;28;20048;-48
2022/04/10 08:52:00;;;;;;;7.38;2.05;;;8.10;99.90;;;;;;5056129;28;20037;-48
2022/04/10 08:54:27;;;;;;;12.63;2.25;;;8.30;99.90;;;;;;5064418;28;20036;-49
2022/04/10 08:56:54;;;;;;;11.50;2.00;;;8.40;99.90;;;;;;5071064;28;20522;-48
2022/04/10 08:59:20;;;;;;;7.13;1.63;;;8.40;99.90;;;;;;5071482;28;20464;-51
2022/04/10 09:01:52;;;;;;;13.80;2.22;;;8.20;99.90;;;;;;5071467;28;20508;-50
2022/04/10 09:04:20;;;;;;;10.23;2.30;;;8.00;99.90;;;;;;5070012;28;20032;-49
2022/04/10 09:07:04;;;;;;;8.38;1.80;;;7.80;99.90;;;;;;5056691;28;20115;-52
2022/04/10 09:09:34;;;;;;;7.22;1.90;;;7.80;99.90;;;;;;5071277;28;20318;-48
2022/04/10 09:12:00;;;;;;;9.30;1.90;;;7.90;99.90;;;;;;5071225;28;20125;-51
2022/04/10 09:14:36;;;;;;;7.75;1.60;;;8.10;99.90;;;;;;5069944;28;20051;-51
2022/04/10 09:17:18;;;;;;;8.38;1.70;;;8.40;99.90;;;;;;5070707;28;20105;-51
2022/04/10 09:19:49;;;;;;;12.60;2.08;;;8.60;99.90;;;;;;5070972;28;20037;-51
2022/04/10 09:22:29;;;;;;;10.95;1.88;;;8.60;99.90;;;;;;5071024;28;20040;-50
2022/04/10 09:25:05;;;;;;;10.25;1.98;;;8.60;99.90;;;;;;5071296;28;20036;-51
2022/04/10 09:27:32;;;;;;;12.02;2.15;;;8.60;99.90;;;;;;5071407;28;20032;-51
2022/04/10 09:29:58;;;;;;;8.90;1.73;;;8.70;99.90;;;;;;5070267;28;20032;-51
2022/04/10 09:32:47;;;;;;;11.10;1.92;;;8.60;99.90;;;;;;5071318;28;20339;-51
2022/04/10 09:35:15;;;;;;;9.30;1.83;;;8.50;99.90;;;;;;5071428;28;20381;-51
2022/04/10 09:37:45;;;;;;;6.97;1.90;;;8.50;99.90;;;;;;5070230;28;20033;-50
2022/04/10 09:40:23;;;;;;;6.93;1.52;;;8.70;99.90;;;;;;5067095;28;20033;-50
2022/04/10 09:42:50;;;;;;;5.72;1.65;;;8.80;99.90;;;;;;5062555;28;20033;-50
2022/04/10 09:45:31;;;;;;;9.45;2.47;;;8.70;98.90;;;;;;5052218;28;20029;-51
2022/04/10 09:47:57;;;;;;;10.10;2.10;;;8.70;99.90;;;;;;5050801;28;20041;-49
2022/04/10 09:50:31;;;;;;;7.95;1.83;;;8.60;99.90;;;;;;5058261;28;20041;-51
2022/04/10 09:52:57;;;;;;;13.93;2.20;;;8.60;99.90;;;;;;5063325;28;20381;-48
2022/04/10 09:55:33;;;;;;;6.07;1.90;;;8.70;99.90;;;;;;5041633;28;20045;-50
2022/04/10 09:58:00;;;;;;;6.00;1.67;;;8.70;99.90;;;;;;5056720;28;20028;-48
2022/04/10 10:00:26;;;;;;;10.73;2.25;;;8.70;99.90;;;;;;5067051;28;20033;-52
2022/04/10 10:02:53;;;;;;;10.63;1.83;;;8.80;99.90;;;;;;5062865;28;20439;-51
2022/04/10 10:05:19;;;;;;;7.80;1.70;;;8.90;99.90;;;;;;5058344;28;20037;-49
2022/04/10 10:07:47;;;;;;;15.98;2.13;;;9.00;99.90;;;;;;5069455;28;20032;-50
2022/04/10 10:10:16;;;;;;;10.73;1.90;;;9.20;99.90;;;;;;5073424;28;20051;-51
2022/04/10 10:12:42;;;;;;;6.65;1.85;;;9.40;99.90;;;;;;5073959;28;20040;-49
2022/04/10 10:15:09;;;;;;;13.05;2.15;;;9.50;99.90;;;;;;5074275;28;20090;-48
2022/04/10 10:17:36;;;;;;;4.63;1.50;;;9.50;99.90;;;;;;5072720;28;20044;-48
2022/04/10 10:20:03;;;;;;;6.53;1.35;;;9.40;99.90;;;;;;5047489;28;20085;-48
2022/04/10 10:22:29;;;;;;;6.35;1.40;;;9.30;99.80;;;;;;5066109;28;20093;-50
2022/04/10 10:25:07;;;;;;;12.30;2.20;;;9.20;97.40;;;;;;5063216;28;20380;-49
2022/04/10 10:27:36;;;;;;;13.05;1.75;;;9.10;96.90;;;;;;5062461;28;20439;-51
2022/04/10 10:30:06;;;;;;;8.40;1.67;;;9.20;97.70;;;;;;5060549;28;20041;-51
2022/04/10 10:32:39;;;;;;;10.52;1.88;;;9.40;97.70;;;;;;5051838;28;20044;-51
2022/04/10 10:35:06;;;;;;;6.10;1.48;;;9.60;97.30;;;;;;5073926;28;20036;-51
2022/04/10 10:37:48;;;;;;;9.20;1.55;;;9.70;97.90;;;;;;5074026;28;20086;-51
2022/04/10 10:40:19;;;;;;;5.63;1.75;;;9.60;96.20;;;;;;5068682;28;20068;-52
2022/04/10 10:42:49;;;;;;;7.28;1.90;;;9.40;96.90;;;;;;5067487;28;20040;-48
2022/04/10 10:45:38;;;;;;;5.30;1.45;;;9.20;98.00;;;;;;5046109;28;20106;-51
2022/04/10 10:48:25;;;;;;;8.38;1.95;;;9.00;96.30;;;;;;5036375;28;20577;-51
2022/04/10 10:50:52;;;;;;;6.85;1.48;;;9.00;96.30;;;;;;5077428;22;20053;-53
2022/04/10 10:53:57;;;;;;;6.72;1.55;;;9.30;96.90;;;;;;5063054;28;20055;-52
2022/04/10 10:56:36;;;;;;;3.95;1.33;;;9.50;96.40;;;;;;5062950;28;20470;-50
2022/04/10 10:59:21;;;;;;;7.13;1.60;;;9.60;95.80;;;;;;5050320;28;20068;-54
2022/04/10 11:02:10;;;;;;;6.35;1.70;;;9.50;95.10;;;;;;5030990;28;20041;-52
2022/04/10 11:04:41;;;;;;;9.07;1.80;;;9.30;94.60;;;;;;5043596;28;20059;-51
2022/04/10 11:07:28;;;;;;;6.53;1.83;;;9.20;95.20;;;;;;5044163;28;20037;-52
2022/04/10 11:10:03;;;;;;;8.02;1.50;;;9.00;95.30;;;;;;5035878;28;20048;-51
2022/04/10 11:12:44;;;;;;;8.43;1.60;;;8.90;96.40;;;;;;5043620;28;20083;-51
2022/04/10 11:15:24;;;;;;;6.82;1.75;;;9.10;97.40;;;;;;5041812;28;20126;-52
2022/04/10 11:17:52;;;;;;;5.00;1.30;;;9.50;97.50;;;;;;5038332;28;20041;-53
2022/04/10 11:20:22;;;;;;;7.85;1.65;;;9.70;97.30;;;;;;5036325;28;20038;-52
2022/04/10 11:22:53;;;;;;;7.57;1.40;;;10.00;95.20;;;;;;5044918;28;20037;-53
2022/04/10 11:25:47;;;;;;;6.53;1.63;;;10.20;95.20;;;;;;5049264;28;20120;-51
2022/04/10 11:28:13;;;;;;;5.40;1.63;;;10.20;93.00;;;;;;5038504;28;20041;-53
2022/04/10 11:30:40;;;;;;;5.22;1.25;;;10.10;92.80;;;;;;5046565;28;20037;-53
2022/04/10 11:33:08;;;;;;;3.63;1.25;;;10.10;92.10;;;;;;5042937;28;20040;-51
2022/04/10 11:35:38;;;;;;;6.00;1.30;;;10.20;91.90;;;;;;5046033;28;20041;-52
2022/04/10 11:38:11;;;;;;;4.60;1.27;;;10.30;89.70;;;;;;5051955;28;20342;-50
2022/04/10 11:40:42;;;;;;;6.85;1.95;;;10.40;90.50;;;;;;5036837;28;20039;-51
2022/04/10 11:43:08;;;;;;;5.72;1.33;;;10.50;86.20;;;;;;5039603;28;20055;-52
2022/04/10 11:45:35;;;;;;;6.72;1.40;;;10.60;90.00;;;;;;5042381;28;20521;-52
2022/04/10 11:48:04;;;;;;;5.60;1.50;;;10.50;89.30;;;;;;5035645;28;20900;-52
2022/04/10 11:50:30;;;;;;;4.40;1.30;;;10.50;88.90;;;;;;5027386;28;20037;-51
2022/04/10 11:53:11;;;;;;;6.32;1.40;;;10.40;87.20;;;;;;5031100;28;20135;-51
2022/04/10 11:55:39;;;;;;;4.50;1.23;;;10.40;88.20;;;;;;5050549;28;20738;-49
2022/04/10 11:58:21;;;;;;;6.95;2.55;;;10.60;90.10;;;;;;5047658;28;20500;-53
2022/04/10 12:01:04;;;;;;;9.05;1.60;;;10.50;86.20;;;;;;5046402;28;20033;-53
2022/04/10 12:03:35;;;;;;;5.95;1.33;;;10.30;85.10;;;;;;5045891;28;20041;-52
2022/04/10 12:06:03;;;;;;;5.90;1.30;;;10.20;85.20;;;;;;5043702;28;20068;-51
2022/04/10 12:08:29;;;;;;;6.15;1.60;;;10.10;89.00;;;;;;5041819;28;20041;-49
2022/04/10 12:10:59;;;;;;;7.63;1.80;;;10.10;91.20;;;;;;5040644;28;20094;-51
2022/04/10 12:13:29;;;;;;;4.80;1.50;;;10.20;92.50;;;;;;5042565;28;20124;-53
2022/04/10 12:15:59;;;;;;;6.63;1.40;;;10.40;91.50;;;;;;5022237;28;20037;-52
2022/04/10 12:18:25;;;;;;;5.68;1.33;;;10.50;90.80;;;;;;5042350;28;20041;-52
2022/04/10 12:20:58;;;;;;;8.63;1.42;;;10.50;90.00;;;;;;5043606;28;20059;-49
2022/04/10 12:23:25;;;;;;;7.93;1.65;;;10.60;89.20;;;;;;5047891;28;20443;-52
2022/04/10 12:25:53;;;;;;;6.65;1.48;;;10.50;90.00;;;;;;5048278;28;20041;-52
2022/04/10 12:28:19;;;;;;;5.80;1.90;;;10.40;90.10;;;;;;5046468;28;20033;-52
2022/04/10 12:30:45;;;;;;;7.28;1.23;;;10.40;88.50;;;;;;5047668;28;20590;-50
2022/04/10 12:33:12;;;;;;;5.93;1.50;;;10.40;86.10;;;;;;5032205;28;20439;-52
2022/04/10 12:35:39;;;;;;;6.65;1.65;;;10.40;84.20;;;;;;5046321;28;20072;-53
2022/04/10 12:38:05;;;;;;;4.43;1.40;;;10.50;83.80;;;;;;5034708;28;20041;-52
2022/04/10 12:40:32;;;;;;;6.38;1.67;;;10.60;85.50;;;;;;5050483;28;20041;-50
2022/04/10 12:42:59;;;;;;;5.20;1.48;;;10.80;87.10;;;;;;5049338;28;20087;-50
2022/04/10 12:45:29;;;;;;;7.97;1.70;;;10.80;84.60;;;;;;5042953;28;20571;-50
2022/04/10 12:47:55;;;;;;;5.47;1.55;;;10.90;84.50;;;;;;5047305;28;20108;-51
2022/04/10 12:50:23;;;;;;;4.15;1.40;;;10.90;81.80;;;;;;5039993;28;20153;-50
2022/04/10 12:52:48;;;;;;;5.22;1.40;;;10.80;80.10;;;;;;5042358;28;20117;-52
2022/04/10 12:55:15;;;;;;;5.53;1.73;;;10.80;79.60;;;;;;5030004;28;20119;-53
2022/04/10 12:57:43;;;;;;;4.80;1.33;;;10.70;81.50;;;;;;5031346;28;20049;-51